Salisbury, Connecticut
Current Conditions -  °F | °C
As of 8:54 AM on Thursday 30 Oct 2014 (Local Time) from KPSF Reporting Station
Few Clouds Few Clouds  
Wind Chill: 37°   Ceiling: Unl
Heat Index: 44°   Visibility: 10mi
Dew Point: 39°   Wind: 16mph
Humidity: 82%   Direction: 290°WNW
Pressure: 29.96"   Gusts: 22mph
Location:  41.98°N, 73.42°W
Report Text: KPSF 301254Z AUTO 29014G19KT 10SM FEW015 07/04 A2996 RMK AO2 SLP141 T00670039
Loading
Personal Weather Stations






























Interactive Weather Map
Tropical Storm Tracking
New forecast layout! Learn more

10-Day Weather Forecast

Advertisements
Track Severe Weather on mobile